sensor_id;sensor_type;location;lat;lon;timestamp;pressure;altitude;pressure_sealevel;temperature;humidity
72961;BME280;61141;46.204;19.774;2023-08-08T00:00:15;100455.16;;;14.50;85.68
72961;BME280;61141;46.204;19.774;2023-08-08T00:03:18;100453.59;;;14.59;84.96
72961;BME280;61141;46.204;19.774;2023-08-08T00:06:21;100455.19;;;14.60;85.67
72961;BME280;61141;46.204;19.774;2023-08-08T00:09:24;100471.31;;;14.51;85.09
72961;BME280;61141;46.204;19.774;2023-08-08T00:12:27;100467.37;;;14.66;84.47
72961;BME280;61141;46.204;19.774;2023-08-08T00:15:30;100452.81;;;14.59;85.12
72961;BME280;61141;46.204;19.774;2023-08-08T00:18:33;100463.47;;;14.60;85.27
72961;BME280;61141;46.204;19.774;2023-08-08T00:21:36;100477.22;;;14.64;85.92
72961;BME280;61141;46.204;19.774;2023-08-08T00:24:38;100467.78;;;14.61;85.50
72961;BME280;61141;46.204;19.774;2023-08-08T00:27:41;100472.91;;;14.59;86.66
72961;BME280;61141;46.204;19.774;2023-08-08T00:30:46;100480.00;;;14.60;87.13
72961;BME280;61141;46.204;19.774;2023-08-08T00:33:49;100484.72;;;14.56;85.93
72961;BME280;61141;46.204;19.774;2023-08-08T00:36:52;100478.41;;;14.45;85.99
72961;BME280;61141;46.204;19.774;2023-08-08T00:39:55;100474.84;;;14.38;88.26
72961;BME280;61141;46.204;19.774;2023-08-08T00:42:58;100459.44;;;14.19;86.84
72961;BME280;61141;46.204;19.774;2023-08-08T00:46:01;100468.91;;;14.22;86.85
72961;BME280;61141;46.204;19.774;2023-08-08T00:49:03;100468.13;;;14.25;87.86
72961;BME280;61141;46.204;19.774;2023-08-08T00:52:07;100476.75;;;14.23;87.38
72961;BME280;61141;46.204;19.774;2023-08-08T00:55:10;100495.72;;;14.42;86.54
72961;BME280;61141;46.204;19.774;2023-08-08T00:58:15;100488.22;;;14.39;85.82
72961;BME280;61141;46.204;19.774;2023-08-08T01:01:18;100487.84;;;14.44;85.93
72961;BME280;61141;46.204;19.774;2023-08-08T01:04:25;100471.25;;;14.23;85.17
72961;BME280;61141;46.204;19.774;2023-08-08T01:08:07;100477.09;;;14.04;85.68
72961;BME280;61141;46.204;19.774;2023-08-08T01:11:11;100498.81;;;14.23;85.73
72961;BME280;61141;46.204;19.774;2023-08-08T01:14:15;100486.12;;;13.97;86.10
72961;BME280;61141;46.204;19.774;2023-08-08T01:17:20;100464.91;;;14.01;85.75
72961;BME280;61141;46.204;19.774;2023-08-08T01:20:24;100506.34;;;14.33;85.04
72961;BME280;61141;46.204;19.774;2023-08-08T01:23:43;100499.19;;;14.18;85.76
72961;BME280;61141;46.204;19.774;2023-08-08T01:26:47;100498.47;;;14.35;85.14
72961;BME280;61141;46.204;19.774;2023-08-08T01:29:50;100503.19;;;14.35;84.90
72961;BME280;61141;46.204;19.774;2023-08-08T01:32:55;100504.31;;;14.23;84.47
72961;BME280;61141;46.204;19.774;2023-08-08T01:36:05;100509.91;;;14.41;84.77
72961;BME280;61141;46.204;19.774;2023-08-08T01:39:13;100502.81;;;14.43;84.30
72961;BME280;61141;46.204;19.774;2023-08-08T01:42:18;100492.88;;;14.14;85.18
72961;BME280;61141;46.204;19.774;2023-08-08T01:45:22;100494.91;;;14.28;84.57
72961;BME280;61141;46.204;19.774;2023-08-08T01:48:27;100492.50;;;14.23;85.60
72961;BME280;61141;46.204;19.774;2023-08-08T01:51:30;100479.12;;;14.21;85.74
72961;BME280;61141;46.204;19.774;2023-08-08T01:54:33;100490.16;;;14.28;84.23
72961;BME280;61141;46.204;19.774;2023-08-08T01:57:36;100493.66;;;14.14;85.16
72961;BME280;61141;46.204;19.774;2023-08-08T02:00:39;100486.12;;;13.94;84.47
72961;BME280;61141;46.204;19.774;2023-08-08T02:03:44;100498.75;;;14.09;85.59
72961;BME280;61141;46.204;19.774;2023-08-08T02:06:46;100496.03;;;14.16;86.10
72961;BME280;61141;46.204;19.774;2023-08-08T02:09:49;100522.03;;;14.26;85.15
72961;BME280;61141;46.204;19.774;2023-08-08T02:12:53;100506.25;;;14.05;85.16
72961;BME280;61141;46.204;19.774;2023-08-08T02:15:56;100517.66;;;14.14;85.94
72961;BME280;61141;46.204;19.774;2023-08-08T02:19:01;100507.44;;;14.07;86.20
72961;BME280;61141;46.204;19.774;2023-08-08T02:22:04;100508.56;;;13.99;86.39
72961;BME280;61141;46.204;19.774;2023-08-08T02:25:07;100507.72;;;13.85;86.63
72961;BME280;61141;46.204;19.774;2023-08-08T02:28:10;100510.88;;;13.83;87.45
72961;BME280;61141;46.204;19.774;2023-08-08T02:31:13;100521.87;;;13.80;87.94
72961;BME280;61141;46.204;19.774;2023-08-08T02:34:23;100502.13;;;13.64;87.64
72961;BME280;61141;46.204;19.774;2023-08-08T02:37:26;100504.13;;;13.74;88.14
72961;BME280;61141;46.204;19.774;2023-08-08T02:40:29;100529.41;;;14.00;87.48
72961;BME280;61141;46.204;19.774;2023-08-08T02:43:32;100512.06;;;13.86;87.28
72961;BME280;61141;46.204;19.774;2023-08-08T02:46:34;100531.66;;;13.74;87.23
72961;BME280;61141;46.204;19.774;2023-08-08T02:49:40;100537.19;;;13.74;88.08
72961;BME280;61141;46.204;19.774;2023-08-08T02:52:43;100537.19;;;13.74;87.69
72961;BME280;61141;46.204;19.774;2023-08-08T02:55:47;100545.47;;;13.81;87.39
72961;BME280;61141;46.204;19.774;2023-08-08T02:58:50;100552.53;;;13.78;87.61
72961;BME280;61141;46.204;19.774;2023-08-08T03:01:54;100547.44;;;13.84;87.70
72961;BME280;61141;46.204;19.774;2023-08-08T03:04:57;100539.97;;;13.84;87.90
72961;BME280;61141;46.204;19.774;2023-08-08T03:08:00;100533.81;;;13.36;88.38
72961;BME280;61141;46.204;19.774;2023-08-08T03:11:03;100539.38;;;13.50;89.90
72961;BME280;61141;46.204;19.774;2023-08-08T03:14:08;100555.19;;;13.61;89.58
72961;BME280;61141;46.204;19.774;2023-08-08T03:17:11;100551.97;;;13.44;90.00
72961;BME280;61141;46.204;19.774;2023-08-08T03:20:16;100561.50;;;13.65;89.23
72961;BME280;61141;46.204;19.774;2023-08-08T03:23:19;100559.19;;;13.70;89.03
72961;BME280;61141;46.204;19.774;2023-08-08T03:26:23;100571.03;;;13.78;89.12
72961;BME280;61141;46.204;19.774;2023-08-08T03:29:25;100541.87;;;13.70;88.99
72961;BME280;61141;46.204;19.774;2023-08-08T03:32:29;100558.84;;;13.82;88.84
72961;BME280;61141;46.204;19.774;2023-08-08T03:35:32;100552.53;;;13.75;88.83
72961;BME280;61141;46.204;19.774;2023-08-08T03:38:35;100568.34;;;13.88;88.32
72961;BME280;61141;46.204;19.774;2023-08-08T03:41:40;100574.12;;;13.73;88.12
72961;BME280;61141;46.204;19.774;2023-08-08T03:44:43;100572.22;;;13.84;88.00
72961;BME280;61141;46.204;19.774;2023-08-08T03:47:47;100559.66;;;13.86;87.87
72961;BME280;61141;46.204;19.774;2023-08-08T03:50:50;100564.41;;;13.93;87.98
72961;BME280;61141;46.204;19.774;2023-08-08T03:53:53;100573.00;;;13.81;88.45
72961;BME280;61141;46.204;19.774;2023-08-08T03:56:56;100567.91;;;13.83;88.75
72961;BME280;61141;46.204;19.774;2023-08-08T04:00:02;100579.81;;;14.04;87.90
72961;BME280;61141;46.204;19.774;2023-08-08T04:03:15;100561.63;;;13.86;87.68
72961;BME280;61141;46.204;19.774;2023-08-08T04:06:18;100574.69;;;14.06;87.96
72961;BME280;61141;46.204;19.774;2023-08-08T04:09:20;100547.78;;;13.72;88.11
72961;BME280;61141;46.204;19.774;2023-08-08T04:12:24;100584.09;;;13.95;89.21
72961;BME280;61141;46.204;19.774;2023-08-08T04:15:26;100566.41;;;13.96;87.58
72961;BME280;61141;46.204;19.774;2023-08-08T04:18:29;100592.50;;;14.27;87.54
72961;BME280;61141;46.204;19.774;2023-08-08T04:21:32;100594.06;;;14.24;85.66
72961;BME280;61141;46.204;19.774;2023-08-08T04:24:35;100596.53;;;14.43;84.79
72961;BME280;61141;46.204;19.774;2023-08-08T04:27:38;100596.53;;;14.50;84.22
72961;BME280;61141;46.204;19.774;2023-08-08T04:30:41;100597.34;;;14.44;84.08
72961;BME280;61141;46.204;19.774;2023-08-08T04:33:43;100572.87;;;14.35;83.67
72961;BME280;61141;46.204;19.774;2023-08-08T04:36:46;100583.97;;;14.49;83.05
72961;BME280;61141;46.204;19.774;2023-08-08T04:39:49;100595.41;;;14.73;83.54
72961;BME280;61141;46.204;19.774;2023-08-08T04:42:52;100600.19;;;14.79;83.03
72961;BME280;61141;46.204;19.774;2023-08-08T04:45:55;100612.41;;;14.96;83.35
72961;BME280;61141;46.204;19.774;2023-08-08T04:48:58;100607.69;;;15.17;82.45
72961;BME280;61141;46.204;19.774;2023-08-08T04:52:01;100602.94;;;14.97;81.70
72961;BME280;61141;46.204;19.774;2023-08-08T04:55:05;100594.31;;;15.37;82.93
72961;BME280;61141;46.204;19.774;2023-08-08T04:58:08;100605.75;;;15.18;79.66
72961;BME280;61141;46.204;19.774;2023-08-08T05:01:11;100614.81;;;15.29;80.90
72961;BME280;61141;46.204;19.774;2023-08-08T05:04:17;100612.44;;;15.24;79.26
72961;BME280;61141;46.204;19.774;2023-08-08T05:07:20;100620.72;;;15.56;78.87
72961;BME280;61141;46.204;19.774;2023-08-08T05:10:23;100611.25;;;15.81;77.96
72961;BME280;61141;46.204;19.774;2023-08-08T05:13:26;100638.06;;;15.84;76.30
72961;BME280;61141;46.204;19.774;2023-08-08T05:16:29;100638.00;;;16.02;76.60
72961;BME280;61141;46.204;19.774;2023-08-08T05:19:32;100614.00;;;15.85;75.77
72961;BME280;61141;46.204;19.774;2023-08-08T05:22:35;100638.44;;;15.94;76.13
72961;BME280;61141;46.204;19.774;2023-08-08T05:25:38;100642.78;;;15.98;74.61
72961;BME280;61141;46.204;19.774;2023-08-08T05:28:41;100625.78;;;16.07;74.85
72961;BME280;61141;46.204;19.774;2023-08-08T05:31:45;100628.47;;;16.28;74.82
72961;BME280;61141;46.204;19.774;2023-08-08T05:34:50;100648.53;;;16.46;72.35
72961;BME280;61141;46.204;19.774;2023-08-08T05:37:53;100647.78;;;16.38;72.41
72961;BME280;61141;46.204;19.774;2023-08-08T05:40:56;100660.28;;;16.78;71.73
72961;BME280;61141;46.204;19.774;2023-08-08T05:43:59;100654.75;;;16.78;72.78
72961;BME280;61141;46.204;19.774;2023-08-08T05:47:02;100656.44;;;16.51;71.60
72961;BME280;61141;46.204;19.774;2023-08-08T05:50:06;100677.63;;;16.82;69.31
72961;BME280;61141;46.204;19.774;2023-08-08T05:53:09;100667.78;;;16.78;70.62
72961;BME280;61141;46.204;19.774;2023-08-08T05:56:13;100671.06;;;17.21;69.39
72961;BME280;61141;46.204;19.774;2023-08-08T05:59:16;100637.53;;;17.12;68.12
72961;BME280;61141;46.204;19.774;2023-08-08T06:02:19;100646.56;;;17.19;68.10
72961;BME280;61141;46.204;19.774;2023-08-08T06:05:22;100679.81;;;17.71;67.90
72961;BME280;61141;46.204;19.774;2023-08-08T06:08:26;100677.16;;;17.56;68.15
72961;BME280;61141;46.204;19.774;2023-08-08T06:11:29;100677.84;;;17.71;66.63
72961;BME280;61141;46.204;19.774;2023-08-08T06:14:32;100679.16;;;18.00;66.04
72961;BME280;61141;46.204;19.774;2023-08-08T06:17:35;100687.13;;;17.95;65.35
72961;BME280;61141;46.204;19.774;2023-08-08T06:20:38;100667.44;;;17.82;66.08
72961;BME280;61141;46.204;19.774;2023-08-08T06:23:41;100664.66;;;17.86;65.40
72961;BME280;61141;46.204;19.774;2023-08-08T06:26:44;100654.22;;;17.56;65.51
72961;BME280;61141;46.204;19.774;2023-08-08T06:29:47;100663.03;;;17.88;64.91
72961;BME280;61141;46.204;19.774;2023-08-08T06:32:50;100667.53;;;17.72;64.05
72961;BME280;61141;46.204;19.774;2023-08-08T06:35:55;100667.13;;;18.14;64.64
72961;BME280;61141;46.204;19.774;2023-08-08T06:38:57;100678.56;;;17.79;64.49
72961;BME280;61141;46.204;19.774;2023-08-08T06:42:00;100661.63;;;18.10;63.85
72961;BME280;61141;46.204;19.774;2023-08-08T06:45:04;100682.44;;;17.88;63.41
72961;BME280;61141;46.204;19.774;2023-08-08T06:48:08;100669.38;;;17.89;63.78
72961;BME280;61141;46.204;19.774;2023-08-08T06:51:11;100689.16;;;17.91;63.02
72961;BME280;61141;46.204;19.774;2023-08-08T06:54:14;100686.25;;;18.05;62.61
72961;BME280;61141;46.204;19.774;2023-08-08T06:57:16;100683.84;;;18.03;62.37
72961;BME280;61141;46.204;19.774;2023-08-08T07:00:20;100694.91;;;18.48;62.74
72961;BME280;61141;46.204;19.774;2023-08-08T07:03:22;100689.25;;;18.17;63.25
72961;BME280;61141;46.204;19.774;2023-08-08T07:06:26;100691.25;;;18.54;62.61
72961;BME280;61141;46.204;19.774;2023-08-08T07:09:29;100688.59;;;18.06;62.15
72961;BME280;61141;46.204;19.774;2023-08-08T07:12:32;100666.09;;;18.35;62.30
72961;BME280;61141;46.204;19.774;2023-08-08T07:15:34;100682.06;;;18.61;60.41
72961;BME280;61141;46.204;19.774;2023-08-08T07:18:38;100687.34;;;18.82;61.18
72961;BME280;61141;46.204;19.774;2023-08-08T07:21:41;100690.94;;;18.79;61.12
72961;BME280;61141;46.204;19.774;2023-08-08T07:24:44;100681.91;;;19.02;60.84
72961;BME280;61141;46.204;19.774;2023-08-08T07:27:46;100694.81;;;19.15;59.47
72961;BME280;61141;46.204;19.774;2023-08-08T07:30:49;100676.78;;;19.27;58.58
72961;BME280;61141;46.204;19.774;2023-08-08T07:33:52;100698.22;;;19.26;60.59
72961;BME280;61141;46.204;19.774;2023-08-08T07:36:55;100688.94;;;19.36;58.40
72961;BME280;61141;46.204;19.774;2023-08-08T07:39:58;100698.03;;;19.41;59.11
72961;BME280;61141;46.204;19.774;2023-08-08T07:43:01;100687.31;;;19.66;58.07
72961;BME280;61141;46.204;19.774;2023-08-08T07:46:04;100699.28;;;19.63;57.04
72961;BME280;61141;46.204;19.774;2023-08-08T07:49:07;100697.69;;;19.62;56.94
72961;BME280;61141;46.204;19.774;2023-08-08T07:52:11;100693.59;;;19.47;56.52
72961;BME280;61141;46.204;19.774;2023-08-08T07:55:14;100702.59;;;19.54;56.73
72961;BME280;61141;46.204;19.774;2023-08-08T07:58:17;100676.25;;;19.85;56.29
72961;BME280;61141;46.204;19.774;2023-08-08T08:01:20;100705.25;;;19.84;55.92
72961;BME280;61141;46.204;19.774;2023-08-08T08:04:23;100703.88;;;19.73;55.40
72961;BME280;61141;46.204;19.774;2023-08-08T08:07:26;100703.44;;;19.98;54.67
72961;BME280;61141;46.204;19.774;2023-08-08T08:10:29;100711.22;;;19.83;53.53
72961;BME280;61141;46.204;19.774;2023-08-08T08:13:31;100708.81;;;20.08;53.79
72961;BME280;61141;46.204;19.774;2023-08-08T08:16:34;100700.75;;;20.14;52.99
72961;BME280;61141;46.204;19.774;2023-08-08T08:19:37;100705.81;;;19.99;52.40
72961;BME280;61141;46.204;19.774;2023-08-08T08:22:41;100699.00;;;20.23;52.02
72961;BME280;61141;46.204;19.774;2023-08-08T08:25:44;100704.63;;;20.20;51.04
72961;BME280;61141;46.204;19.774;2023-08-08T08:28:47;100698.19;;;20.26;51.31
72961;BME280;61141;46.204;19.774;2023-08-08T08:31:49;100705.31;;;20.67;50.50
72961;BME280;61141;46.204;19.774;2023-08-08T08:34:52;100698.19;;;20.46;50.43
72961;BME280;61141;46.204;19.774;2023-08-08T08:37:55;100699.22;;;21.11;50.24
72961;BME280;61141;46.204;19.774;2023-08-08T08:40:58;100709.13;;;20.57;49.18
72961;BME280;61141;46.204;19.774;2023-08-08T08:44:02;100702.03;;;20.72;49.36
72961;BME280;61141;46.204;19.774;2023-08-08T08:47:07;100698.31;;;20.78;50.31
72961;BME280;61141;46.204;19.774;2023-08-08T08:50:15;100714.00;;;21.08;50.00
72961;BME280;61141;46.204;19.774;2023-08-08T08:53:18;100702.88;;;21.08;48.95
72961;BME280;61141;46.204;19.774;2023-08-08T08:56:21;100709.44;;;21.18;48.46
72961;BME280;61141;46.204;19.774;2023-08-08T08:59:25;100700.56;;;21.23;49.01
72961;BME280;61141;46.204;19.774;2023-08-08T09:02:28;100697.16;;;21.80;48.11
72961;BME280;61141;46.204;19.774;2023-08-08T09:05:33;100687.41;;;21.88;47.20
72961;BME280;61141;46.204;19.774;2023-08-08T09:08:36;100684.97;;;22.06;45.81
72961;BME280;61141;46.204;19.774;2023-08-08T09:11:39;100693.69;;;22.08;45.72
72961;BME280;61141;46.204;19.774;2023-08-08T09:14:42;100684.63;;;21.72;46.46
72961;BME280;61141;46.204;19.774;2023-08-08T09:17:45;100683.34;;;22.21;46.72
72961;BME280;61141;46.204;19.774;2023-08-08T09:20:51;100678.06;;;22.39;46.22
72961;BME280;61141;46.204;19.774;2023-08-08T09:23:54;100688.44;;;22.67;46.15
72961;BME280;61141;46.204;19.774;2023-08-08T09:26:56;100695.09;;;22.86;44.97
72961;BME280;61141;46.204;19.774;2023-08-08T09:29:59;100688.06;;;22.53;44.62
72961;BME280;61141;46.204;19.774;2023-08-08T09:33:02;100692.09;;;22.23;44.29
72961;BME280;61141;46.204;19.774;2023-08-08T09:36:06;100690.09;;;22.07;44.01
72961;BME280;61141;46.204;19.774;2023-08-08T09:39:08;100694.91;;;21.91;44.92
72961;BME280;61141;46.204;19.774;2023-08-08T09:42:13;100692.75;;;22.56;45.02
72961;BME280;61141;46.204;19.774;2023-08-08T09:45:16;100691.28;;;22.80;44.28
72961;BME280;61141;46.204;19.774;2023-08-08T09:48:19;100692.62;;;22.88;43.21
72961;BME280;61141;46.204;19.774;2023-08-08T09:51:22;100694.22;;;22.60;44.67
72961;BME280;61141;46.204;19.774;2023-08-08T09:54:25;100698.94;;;22.63;44.37
72961;BME280;61141;46.204;19.774;2023-08-08T09:57:29;100687.91;;;22.85;43.99
72961;BME280;61141;46.204;19.774;2023-08-08T10:00:33;100694.22;;;22.60;42.88
72961;BME280;61141;46.204;19.774;2023-08-08T10:03:37;100696.47;;;22.65;41.33
72961;BME280;61141;46.204;19.774;2023-08-08T10:06:40;100694.22;;;22.32;41.49
72961;BME280;61141;46.204;19.774;2023-08-08T10:09:43;100694.44;;;22.95;40.44
72961;BME280;61141;46.204;19.774;2023-08-08T10:12:46;100688.59;;;22.89;39.85
72961;BME280;61141;46.204;19.774;2023-08-08T10:15:50;100692.97;;;23.15;39.80
72961;BME280;61141;46.204;19.774;2023-08-08T10:19:01;100691.53;;;23.11;39.16
72961;BME280;61141;46.204;19.774;2023-08-08T10:22:05;100676.94;;;22.65;38.57
72961;BME280;61141;46.204;19.774;2023-08-08T10:25:08;100683.25;;;23.20;38.78
72961;BME280;61141;46.204;19.774;2023-08-08T10:28:13;100683.22;;;22.69;37.80
72961;BME280;61141;46.204;19.774;2023-08-08T10:31:20;100689.16;;;22.97;37.94
72961;BME280;61141;46.204;19.774;2023-08-08T10:34:36;100671.84;;;23.02;38.28
72961;BME280;61141;46.204;19.774;2023-08-08T10:37:39;100668.91;;;23.68;38.43
72961;BME280;61141;46.204;19.774;2023-08-08T10:40:43;100694.66;;;23.13;37.46
72961;BME280;61141;46.204;19.774;2023-08-08T10:43:57;100682.97;;;22.64;38.46
72961;BME280;61141;46.204;19.774;2023-08-08T10:47:00;100673.53;;;23.50;36.91
72961;BME280;61141;46.204;19.774;2023-08-08T10:50:22;100673.97;;;23.61;36.89
72961;BME280;61141;46.204;19.774;2023-08-08T10:53:28;100675.31;;;23.06;38.44
72961;BME280;61141;46.204;19.774;2023-08-08T10:56:31;100667.37;;;23.04;37.91
72961;BME280;61141;46.204;19.774;2023-08-08T10:59:37;100672.06;;;23.32;38.42
72961;BME280;61141;46.204;19.774;2023-08-08T11:02:41;100662.31;;;23.75;37.63
72961;BME280;61141;46.204;19.774;2023-08-08T11:05:46;100672.66;;;23.87;38.54
72961;BME280;61141;46.204;19.774;2023-08-08T11:08:53;100667.13;;;23.36;36.81
72961;BME280;61141;46.204;19.774;2023-08-08T11:11:57;100657.66;;;24.28;36.08
72961;BME280;61141;46.204;19.774;2023-08-08T11:15:00;100659.22;;;24.29;35.16
72961;BME280;61141;46.204;19.774;2023-08-08T11:18:04;100673.84;;;23.64;37.53
72961;BME280;61141;46.204;19.774;2023-08-08T11:21:10;100676.69;;;23.39;37.84
72961;BME280;61141;46.204;19.774;2023-08-08T11:24:20;100679.25;;;23.46;37.63
72961;BME280;61141;46.204;19.774;2023-08-08T11:27:23;100664.56;;;24.02;37.39
72961;BME280;61141;46.204;19.774;2023-08-08T11:30:33;100653.34;;;24.36;35.31
72961;BME280;61141;46.204;19.774;2023-08-08T11:33:36;100663.28;;;23.81;37.48
72961;BME280;61141;46.204;19.774;2023-08-08T11:36:40;100665.34;;;23.17;39.84
72961;BME280;61141;46.204;19.774;2023-08-08T11:39:42;100671.72;;;22.93;39.73
72961;BME280;61141;46.204;19.774;2023-08-08T11:42:46;100664.91;;;22.81;40.24
72961;BME280;61141;46.204;19.774;2023-08-08T11:45:49;100640.78;;;23.37;39.64
72961;BME280;61141;46.204;19.774;2023-08-08T11:48:54;100635.72;;;23.45;39.43
72961;BME280;61141;46.204;19.774;2023-08-08T11:51:57;100642.69;;;24.43;38.49
72961;BME280;61141;46.204;19.774;2023-08-08T11:55:02;100642.53;;;24.69;38.00
72961;BME280;61141;46.204;19.774;2023-08-08T11:58:12;100651.38;;;24.67;36.59
72961;BME280;61141;46.204;19.774;2023-08-08T12:01:25;100631.34;;;24.78;36.78
72961;BME280;61141;46.204;19.774;2023-08-08T12:04:29;100631.47;;;25.45;37.04
72961;BME280;61141;46.204;19.774;2023-08-08T12:07:33;100634.97;;;25.49;36.01
72961;BME280;61141;46.204;19.774;2023-08-08T12:10:37;100629.22;;;25.80;35.84
72961;BME280;61141;46.204;19.774;2023-08-08T12:13:43;100622.53;;;25.95;36.22
72961;BME280;61141;46.204;19.774;2023-08-08T12:16:47;100636.38;;;24.61;37.86
72961;BME280;61141;46.204;19.774;2023-08-08T12:19:50;100623.91;;;24.31;37.80
72961;BME280;61141;46.204;19.774;2023-08-08T12:22:53;100626.59;;;24.01;39.29
72961;BME280;61141;46.204;19.774;2023-08-08T12:25:57;100614.75;;;23.75;37.43
72961;BME280;61141;46.204;19.774;2023-08-08T12:29:00;100623.06;;;23.53;37.09
72961;BME280;61141;46.204;19.774;2023-08-08T12:32:03;100618.91;;;24.79;35.71
72961;BME280;61141;46.204;19.774;2023-08-08T12:35:10;100620.37;;;23.96;37.25
72961;BME280;61141;46.204;19.774;2023-08-08T12:38:13;100608.78;;;23.73;38.18
72961;BME280;61141;46.204;19.774;2023-08-08T12:41:16;100619.69;;;24.27;38.22
72961;BME280;61141;46.204;19.774;2023-08-08T12:44:19;100619.16;;;23.51;39.50
72961;BME280;61141;46.204;19.774;2023-08-08T12:47:22;100622.09;;;23.47;39.59
72961;BME280;61141;46.204;19.774;2023-08-08T12:50:25;100618.81;;;24.39;39.21
72961;BME280;61141;46.204;19.774;2023-08-08T12:53:28;100611.69;;;24.99;36.33
72961;BME280;61141;46.204;19.774;2023-08-08T12:56:31;100609.87;;;25.15;35.96
72961;BME280;61141;46.204;19.774;2023-08-08T12:59:34;100611.03;;;24.86;36.37
72961;BME280;61141;46.204;19.774;2023-08-08T13:02:38;100607.38;;;24.46;37.45
72961;BME280;61141;46.204;19.774;2023-08-08T13:05:41;100605.91;;;24.63;36.97
72961;BME280;61141;46.204;19.774;2023-08-08T13:08:44;100609.41;;;24.76;37.03
72961;BME280;61141;46.204;19.774;2023-08-08T13:11:47;100606.78;;;25.22;35.54
72961;BME280;61141;46.204;19.774;2023-08-08T13:14:49;100594.97;;;25.36;34.89
72961;BME280;61141;46.204;19.774;2023-08-08T13:17:52;100599.72;;;24.99;33.71
72961;BME280;61141;46.204;19.774;2023-08-08T13:20:55;100595.69;;;25.76;33.20
72961;BME280;61141;46.204;19.774;2023-08-08T13:23:58;100600.53;;;26.12;33.53
72961;BME280;61141;46.204;19.774;2023-08-08T13:27:01;100594.00;;;25.11;34.35
72961;BME280;61141;46.204;19.774;2023-08-08T13:30:05;100595.63;;;24.60;36.08
72961;BME280;61141;46.204;19.774;2023-08-08T13:33:09;100597.28;;;24.05;36.29
72961;BME280;61141;46.204;19.774;2023-08-08T13:36:12;100590.06;;;24.38;36.62
72961;BME280;61141;46.204;19.774;2023-08-08T13:39:15;100583.56;;;24.50;34.46
72961;BME280;61141;46.204;19.774;2023-08-08T13:42:17;100575.34;;;25.45;33.68
72961;BME280;61141;46.204;19.774;2023-08-08T13:45:20;100581.62;;;25.85;32.42
72961;BME280;61141;46.204;19.774;2023-08-08T13:48:24;100582.87;;;26.30;31.66
72961;BME280;61141;46.204;19.774;2023-08-08T13:51:27;100581.25;;;26.56;31.39
72961;BME280;61141;46.204;19.774;2023-08-08T13:54:30;100583.16;;;26.41;30.82
72961;BME280;61141;46.204;19.774;2023-08-08T13:57:33;100586.66;;;26.17;30.79
72961;BME280;61141;46.204;19.774;2023-08-08T14:00:36;100581.78;;;25.63;30.89
72961;BME280;61141;46.204;19.774;2023-08-08T14:03:39;100581.94;;;25.69;31.99
72961;BME280;61141;46.204;19.774;2023-08-08T14:06:41;100586.00;;;25.77;31.67
72961;BME280;61141;46.204;19.774;2023-08-08T14:09:44;100574.62;;;25.62;31.79
72961;BME280;61141;46.204;19.774;2023-08-08T14:12:47;100575.94;;;25.22;32.40
72961;BME280;61141;46.204;19.774;2023-08-08T14:15:50;100581.78;;;26.00;31.66
72961;BME280;61141;46.204;19.774;2023-08-08T14:18:54;100576.34;;;25.60;31.57
72961;BME280;61141;46.204;19.774;2023-08-08T14:21:57;100579.75;;;26.37;31.69
72961;BME280;61141;46.204;19.774;2023-08-08T14:25:00;100579.75;;;26.88;30.75
72961;BME280;61141;46.204;19.774;2023-08-08T14:28:03;100574.78;;;26.82;30.49
72961;BME280;61141;46.204;19.774;2023-08-08T14:31:06;100577.50;;;27.01;30.64
72961;BME280;61141;46.204;19.774;2023-08-08T14:34:09;100571.94;;;26.04;31.68
72961;BME280;61141;46.204;19.774;2023-08-08T14:37:12;100572.84;;;27.21;30.88
72961;BME280;61141;46.204;19.774;2023-08-08T14:40:15;100580.59;;;27.12;30.33
72961;BME280;61141;46.204;19.774;2023-08-08T14:43:17;100574.25;;;26.93;30.14
72961;BME280;61141;46.204;19.774;2023-08-08T14:46:21;100566.81;;;26.03;30.82
72961;BME280;61141;46.204;19.774;2023-08-08T14:49:23;100575.34;;;26.54;30.55
72961;BME280;61141;46.204;19.774;2023-08-08T14:52:28;100572.25;;;26.84;29.94
72961;BME280;61141;46.204;19.774;2023-08-08T14:55:31;100572.84;;;26.38;29.17
72961;BME280;61141;46.204;19.774;2023-08-08T14:58:34;100554.50;;;25.64;31.20
72961;BME280;61141;46.204;19.774;2023-08-08T15:01:37;100571.50;;;25.97;31.07
72961;BME280;61141;46.204;19.774;2023-08-08T15:04:40;100573.22;;;26.72;30.43
72961;BME280;61141;46.204;19.774;2023-08-08T15:07:43;100568.53;;;27.11;31.69
72961;BME280;61141;46.204;19.774;2023-08-08T15:10:46;100581.19;;;26.83;31.90
72961;BME280;61141;46.204;19.774;2023-08-08T15:13:49;100571.09;;;27.00;30.11
72961;BME280;61141;46.204;19.774;2023-08-08T15:16:52;100568.00;;;26.56;31.82
72961;BME280;61141;46.204;19.774;2023-08-08T15:19:56;100572.75;;;26.83;31.55
72961;BME280;61141;46.204;19.774;2023-08-08T15:22:59;100567.09;;;26.41;31.65
72961;BME280;61141;46.204;19.774;2023-08-08T15:26:01;100568.06;;;26.29;31.23
72961;BME280;61141;46.204;19.774;2023-08-08T15:29:05;100565.72;;;26.09;31.73
72961;BME280;61141;46.204;19.774;2023-08-08T15:32:08;100567.00;;;25.90;34.00
72961;BME280;61141;46.204;19.774;2023-08-08T15:35:11;100569.31;;;26.01;32.99
72961;BME280;61141;46.204;19.774;2023-08-08T15:38:13;100562.47;;;25.75;32.88
72961;BME280;61141;46.204;19.774;2023-08-08T15:41:16;100560.88;;;26.10;33.20
72961;BME280;61141;46.204;19.774;2023-08-08T15:44:19;100565.59;;;26.04;32.61
72961;BME280;61141;46.204;19.774;2023-08-08T15:47:22;100551.06;;;26.23;33.04